sensor_id;sensor_type;location;lat;lon;timestamp;temperature;humidity
45233;DHT22;30969;51.052;17.056;2023-05-10T04:55:19;11.00;55.30
45233;DHT22;30969;51.052;17.056;2023-05-10T05:00:23;11.10;55.60
45233;DHT22;30969;51.052;17.056;2023-05-10T05:05:27;11.60;54.50
45233;DHT22;30969;51.052;17.056;2023-05-10T05:10:33;11.90;53.00
45233;DHT22;30969;51.052;17.056;2023-05-10T05:15:36;12.20;52.20
45233;DHT22;30969;51.052;17.056;2023-05-10T05:20:39;12.50;51.60
45233;DHT22;30969;51.052;17.056;2023-05-10T05:25:44;12.70;51.00
45233;DHT22;30969;51.052;17.056;2023-05-10T05:30:48;12.80;50.70
45233;DHT22;30969;51.052;17.056;2023-05-10T05:35:51;13.00;50.30
45233;DHT22;30969;51.052;17.056;2023-05-10T05:40:57;13.10;50.10
45233;DHT22;30969;51.052;17.056;2023-05-10T05:46:01;13.20;49.80
45233;DHT22;30969;51.052;17.056;2023-05-10T05:51:04;13.20;49.40
45233;DHT22;30969;51.052;17.056;2023-05-10T05:56:10;13.20;49.50
45233;DHT22;30969;51.052;17.056;2023-05-10T06:01:13;13.40;49.60
45233;DHT22;30969;51.052;17.056;2023-05-10T06:06:17;13.50;49.30
45233;DHT22;30969;51.052;17.056;2023-05-10T06:11:22;13.60;49.30
45233;DHT22;30969;51.052;17.056;2023-05-10T06:16:26;13.70;49.30
45233;DHT22;30969;51.052;17.056;2023-05-10T06:21:29;13.80;49.10
45233;DHT22;30969;51.052;17.056;2023-05-10T06:26:34;13.90;49.30
45233;DHT22;30969;51.052;17.056;2023-05-10T06:31:38;14.10;49.30
45233;DHT22;30969;51.052;17.056;2023-05-10T06:36:41;14.20;48.80
45233;DHT22;30969;51.052;17.056;2023-05-10T06:41:46;14.30;48.40
45233;DHT22;30969;51.052;17.056;2023-05-10T06:46:50;14.40;48.20
45233;DHT22;30969;51.052;17.056;2023-05-10T06:51:55;14.50;47.90
45233;DHT22;30969;51.052;17.056;2023-05-10T06:57:00;14.80;48.50
45233;DHT22;30969;51.052;17.056;2023-05-10T07:02:08;15.00;47.80
45233;DHT22;30969;51.052;17.056;2023-05-10T07:07:12;15.20;47.10
45233;DHT22;30969;51.052;17.056;2023-05-10T07:12:17;15.40;46.50
45233;DHT22;30969;51.052;17.056;2023-05-10T07:17:21;15.50;46.30
45233;DHT22;30969;51.052;17.056;2023-05-10T07:22:24;15.60;46.10
45233;DHT22;30969;51.052;17.056;2023-05-10T07:27:30;15.90;45.60
45233;DHT22;30969;51.052;17.056;2023-05-10T07:32:34;16.00;45.30
45233;DHT22;30969;51.052;17.056;2023-05-10T07:37:38;16.10;45.00
45233;DHT22;30969;51.052;17.056;2023-05-10T07:42:44;16.10;45.10
45233;DHT22;30969;51.052;17.056;2023-05-10T07:47:48;16.20;45.30
45233;DHT22;30969;51.052;17.056;2023-05-10T07:52:51;16.40;44.90
45233;DHT22;30969;51.052;17.056;2023-05-10T07:57:56;16.50;45.00
45233;DHT22;30969;51.052;17.056;2023-05-10T08:03:00;16.60;45.10
45233;DHT22;30969;51.052;17.056;2023-05-10T08:08:05;16.80;44.80
45233;DHT22;30969;51.052;17.056;2023-05-10T08:13:10;16.90;44.60
45233;DHT22;30969;51.052;17.056;2023-05-10T08:18:14;17.00;44.60
45233;DHT22;30969;51.052;17.056;2023-05-10T08:23:19;17.20;44.50
45233;DHT22;30969;51.052;17.056;2023-05-10T08:28:24;17.30;44.30
45233;DHT22;30969;51.052;17.056;2023-05-10T08:33:28;17.50;43.90
45233;DHT22;30969;51.052;17.056;2023-05-10T08:38:32;17.50;43.60
45233;DHT22;30969;51.052;17.056;2023-05-10T08:43:37;17.70;43.80
45233;DHT22;30969;51.052;17.056;2023-05-10T08:48:44;17.80;44.00
45233;DHT22;30969;51.052;17.056;2023-05-10T08:53:49;18.00;43.90
45233;DHT22;30969;51.052;17.056;2023-05-10T08:58:56;18.00;44.50
45233;DHT22;30969;51.052;17.056;2023-05-10T09:04:00;18.00;43.70
45233;DHT22;30969;51.052;17.056;2023-05-10T09:09:03;18.00;43.40
45233;DHT22;30969;51.052;17.056;2023-05-10T09:14:10;18.10;43.60
45233;DHT22;30969;51.052;17.056;2023-05-10T09:19:14;18.10;43.60
45233;DHT22;30969;51.052;17.056;2023-05-10T09:24:18;18.30;43.70
45233;DHT22;30969;51.052;17.056;2023-05-10T09:29:24;18.40;43.40
45233;DHT22;30969;51.052;17.056;2023-05-10T09:34:30;18.40;43.70
45233;DHT22;30969;51.052;17.056;2023-05-10T09:39:36;18.60;43.30
45233;DHT22;30969;51.052;17.056;2023-05-10T09:44:41;18.70;43.10
45233;DHT22;30969;51.052;17.056;2023-05-10T09:49:49;18.70;43.10
45233;DHT22;30969;51.052;17.056;2023-05-10T09:54:54;18.90;43.40
45233;DHT22;30969;51.052;17.056;2023-05-10T10:00:00;18.90;42.50
45233;DHT22;30969;51.052;17.056;2023-05-10T10:05:07;19.10;42.00
45233;DHT22;30969;51.052;17.056;2023-05-10T10:10:11;19.20;41.40
45233;DHT22;30969;51.052;17.056;2023-05-10T10:15:17;19.20;40.60
45233;DHT22;30969;51.052;17.056;2023-05-10T10:20:22;19.40;40.30
45233;DHT22;30969;51.052;17.056;2023-05-10T10:25:27;19.60;40.30
45233;DHT22;30969;51.052;17.056;2023-05-10T10:30:39;19.60;39.80
45233;DHT22;30969;51.052;17.056;2023-05-10T10:35:45;19.80;40.80
45233;DHT22;30969;51.052;17.056;2023-05-10T10:41:02;20.00;40.30
45233;DHT22;30969;51.052;17.056;2023-05-10T10:46:13;20.20;39.10
45233;DHT22;30969;51.052;17.056;2023-05-10T10:51:17;20.30;39.30
45233;DHT22;30969;51.052;17.056;2023-05-10T10:56:22;20.50;39.90
45233;DHT22;30969;51.052;17.056;2023-05-10T11:01:32;20.60;39.50
45233;DHT22;30969;51.052;17.056;2023-05-10T11:06:36;20.70;37.80
45233;DHT22;30969;51.052;17.056;2023-05-10T11:11:50;20.90;37.60
45233;DHT22;30969;51.052;17.056;2023-05-10T11:16:56;21.00;37.60
45233;DHT22;30969;51.052;17.056;2023-05-10T11:22:12;21.10;36.40
45233;DHT22;30969;51.052;17.056;2023-05-10T11:27:16;21.30;36.50
45233;DHT22;30969;51.052;17.056;2023-05-10T11:32:21;21.40;35.60
45233;DHT22;30969;51.052;17.056;2023-05-10T11:37:28;21.60;36.00
45233;DHT22;30969;51.052;17.056;2023-05-10T11:42:34;21.70;34.90
45233;DHT22;30969;51.052;17.056;2023-05-10T11:47:39;21.70;34.90
45233;DHT22;30969;51.052;17.056;2023-05-10T11:52:44;21.80;34.90
45233;DHT22;30969;51.052;17.056;2023-05-10T11:57:51;21.80;34.40
45233;DHT22;30969;51.052;17.056;2023-05-10T12:02:56;21.80;34.80
45233;DHT22;30969;51.052;17.056;2023-05-10T12:08:13;22.00;34.60
45233;DHT22;30969;51.052;17.056;2023-05-10T12:13:19;22.20;33.80
45233;DHT22;30969;51.052;17.056;2023-05-10T12:18:24;22.30;32.90
45233;DHT22;30969;51.052;17.056;2023-05-10T12:23:28;22.20;33.00
45233;DHT22;30969;51.052;17.056;2023-05-10T12:28:32;22.20;32.70
45233;DHT22;30969;51.052;17.056;2023-05-10T12:33:55;22.20;31.80
45233;DHT22;30969;51.052;17.056;2023-05-10T12:39:02;22.30;32.40
45233;DHT22;30969;51.052;17.056;2023-05-10T12:44:07;22.40;32.00
45233;DHT22;30969;51.052;17.056;2023-05-10T12:49:11;22.40;31.90
45233;DHT22;30969;51.052;17.056;2023-05-10T12:54:15;22.60;31.90
45233;DHT22;30969;51.052;17.056;2023-05-10T12:59:19;22.70;31.40
45233;DHT22;30969;51.052;17.056;2023-05-10T13:04:24;22.80;31.50
45233;DHT22;30969;51.052;17.056;2023-05-10T13:09:27;22.80;31.10
45233;DHT22;30969;51.052;17.056;2023-05-10T13:14:31;22.80;31.60
45233;DHT22;30969;51.052;17.056;2023-05-10T13:19:36;22.80;31.00
45233;DHT22;30969;51.052;17.056;2023-05-10T13:24:40;22.70;31.10
45233;DHT22;30969;51.052;17.056;2023-05-10T13:29:43;22.70;31.40
45233;DHT22;30969;51.052;17.056;2023-05-10T13:34:51;22.80;31.20
45233;DHT22;30969;51.052;17.056;2023-05-10T13:39:54;23.10;30.80
45233;DHT22;30969;51.052;17.056;2023-05-10T13:44:57;23.20;30.80
45233;DHT22;30969;51.052;17.056;2023-05-10T13:50:02;23.20;30.40
45233;DHT22;30969;51.052;17.056;2023-05-10T13:55:07;23.10;30.30
45233;DHT22;30969;51.052;17.056;2023-05-10T14:00:11;22.90;30.00
45233;DHT22;30969;51.052;17.056;2023-05-10T14:05:16;23.10;30.40
45233;DHT22;30969;51.052;17.056;2023-05-10T14:10:26;23.10;29.90
45233;DHT22;30969;51.052;17.056;2023-05-10T14:15:29;23.10;29.90
45233;DHT22;30969;51.052;17.056;2023-05-10T14:20:34;23.20;29.70
45233;DHT22;30969;51.052;17.056;2023-05-10T14:25:39;23.30;29.60
45233;DHT22;30969;51.052;17.056;2023-05-10T14:30:43;24.80;28.30
45233;DHT22;30969;51.052;17.056;2023-05-10T14:35:48;25.20;27.70
45233;DHT22;30969;51.052;17.056;2023-05-10T14:40:52;27.10;27.20
45233;DHT22;30969;51.052;17.056;2023-05-10T14:45:55;28.50;24.50
45233;DHT22;30969;51.052;17.056;2023-05-10T14:51:00;27.70;25.30
45233;DHT22;30969;51.052;17.056;2023-05-10T14:56:04;27.40;25.30
45233;DHT22;30969;51.052;17.056;2023-05-10T15:01:07;28.40;24.90
45233;DHT22;30969;51.052;17.056;2023-05-10T15:06:14;28.70;24.30
45233;DHT22;30969;51.052;17.056;2023-05-10T15:11:17;28.40;24.00
45233;DHT22;30969;51.052;17.056;2023-05-10T15:16:21;27.90;23.90
45233;DHT22;30969;51.052;17.056;2023-05-10T15:21:26;27.00;24.40
45233;DHT22;30969;51.052;17.056;2023-05-10T15:26:30;26.30;25.20
45233;DHT22;30969;51.052;17.056;2023-05-10T15:31:35;26.00;25.40
45233;DHT22;30969;51.052;17.056;2023-05-10T15:36:39;26.00;26.00
45233;DHT22;30969;51.052;17.056;2023-05-10T15:41:43;25.90;26.00
45233;DHT22;30969;51.052;17.056;2023-05-10T15:46:47;26.30;26.50
45233;DHT22;30969;51.052;17.056;2023-05-10T15:51:52;28.00;25.60
45233;DHT22;30969;51.052;17.056;2023-05-10T15:56:56;30.10;23.90
45233;DHT22;30969;51.052;17.056;2023-05-10T16:01:59;31.60;22.90
45233;DHT22;30969;51.052;17.056;2023-05-10T16:07:06;31.90;21.80
45233;DHT22;30969;51.052;17.056;2023-05-10T16:12:10;31.30;21.80
45233;DHT22;30969;51.052;17.056;2023-05-10T16:17:13;31.80;21.90
45233;DHT22;30969;51.052;17.056;2023-05-10T16:22:18;32.70;20.70
45233;DHT22;30969;51.052;17.056;2023-05-10T16:27:23;33.10;20.20
45233;DHT22;30969;51.052;17.056;2023-05-10T16:32:29;32.60;20.50
45233;DHT22;30969;51.052;17.056;2023-05-10T16:37:34;31.30;20.90
45233;DHT22;30969;51.052;17.056;2023-05-10T16:42:38;30.00;21.80
45233;DHT22;30969;51.052;17.056;2023-05-10T16:47:42;28.90;22.90
45233;DHT22;30969;51.052;17.056;2023-05-10T16:52:47;28.50;23.70
45233;DHT22;30969;51.052;17.056;2023-05-10T16:57:50;27.90;23.90
45233;DHT22;30969;51.052;17.056;2023-05-10T17:02:54;27.30;24.30
45233;DHT22;30969;51.052;17.056;2023-05-10T17:07:59;26.60;24.90
45233;DHT22;30969;51.052;17.056;2023-05-10T17:13:02;26.10;25.50
45233;DHT22;30969;51.052;17.056;2023-05-10T17:18:06;25.60;26.10
45233;DHT22;30969;51.052;17.056;2023-05-10T17:23:12;25.10;26.70
45233;DHT22;30969;51.052;17.056;2023-05-10T17:28:16;24.60;27.40
45233;DHT22;30969;51.052;17.056;2023-05-10T17:33:19;24.30;28.10
45233;DHT22;30969;51.052;17.056;2023-05-10T17:38:24;23.90;28.60
45233;DHT22;30969;51.052;17.056;2023-05-10T17:43:28;23.60;29.20
45233;DHT22;30969;51.052;17.056;2023-05-10T17:48:31;23.30;29.60
45233;DHT22;30969;51.052;17.056;2023-05-10T17:53:39;23.00;30.00
45233;DHT22;30969;51.052;17.056;2023-05-10T17:58:44;22.60;30.40
45233;DHT22;30969;51.052;17.056;2023-05-10T18:03:48;22.40;31.00
45233;DHT22;30969;51.052;17.056;2023-05-10T18:08:54;22.20;31.30
45233;DHT22;30969;51.052;17.056;2023-05-10T18:13:58;22.00;31.70
45233;DHT22;30969;51.052;17.056;2023-05-10T18:19:01;21.90;32.00
45233;DHT22;30969;51.052;17.056;2023-05-10T18:24:07;21.70;32.40
45233;DHT22;30969;51.052;17.056;2023-05-10T18:29:11;21.60;32.50
45233;DHT22;30969;51.052;17.056;2023-05-10T18:34:15;21.50;32.80
45233;DHT22;30969;51.052;17.056;2023-05-10T18:39:20;21.40;33.20
45233;DHT22;30969;51.052;17.056;2023-05-10T18:44:23;21.30;33.60
45233;DHT22;30969;51.052;17.056;2023-05-10T18:49:28;21.20;33.90
45233;DHT22;30969;51.052;17.056;2023-05-10T18:54:33;21.00;35.30
45233;DHT22;30969;51.052;17.056;2023-05-10T18:59:36;21.00;34.70
45233;DHT22;30969;51.052;17.056;2023-05-10T19:04:40;20.80;35.00
45233;DHT22;30969;51.052;17.056;2023-05-10T19:09:45;20.70;35.30
45233;DHT22;30969;51.052;17.056;2023-05-10T19:14:48;20.60;35.80
45233;DHT22;30969;51.052;17.056;2023-05-10T19:19:52;20.40;36.00
45233;DHT22;30969;51.052;17.056;2023-05-10T19:24:59;20.30;36.20
45233;DHT22;30969;51.052;17.056;2023-05-10T19:30:03;20.20;36.50
45233;DHT22;30969;51.052;17.056;2023-05-10T19:35:07;20.10;36.90
45233;DHT22;30969;51.052;17.056;2023-05-10T19:40:14;20.00;37.10
45233;DHT22;30969;51.052;17.056;2023-05-10T19:45:18;19.90;37.50
45233;DHT22;30969;51.052;17.056;2023-05-10T19:50:22;19.80;37.70
45233;DHT22;30969;51.052;17.056;2023-05-10T19:55:28;19.70;37.90
45233;DHT22;30969;51.052;17.056;2023-05-10T20:00:33;19.50;38.20
45233;DHT22;30969;51.052;17.056;2023-05-10T20:05:37;19.40;38.80
45233;DHT22;30969;51.052;17.056;2023-05-10T20:10:42;19.20;39.00
45233;DHT22;30969;51.052;17.056;2023-05-10T20:15:46;19.10;39.10
45233;DHT22;30969;51.052;17.056;2023-05-10T20:20:52;18.90;40.40
45233;DHT22;30969;51.052;17.056;2023-05-10T20:25:58;18.70;41.80
45233;DHT22;30969;51.052;17.056;2023-05-10T20:31:01;18.60;41.30
45233;DHT22;30969;51.052;17.056;2023-05-10T20:36:05;18.50;41.50
45233;DHT22;30969;51.052;17.056;2023-05-10T20:41:12;18.40;41.40
45233;DHT22;30969;51.052;17.056;2023-05-10T20:46:15;18.30;42.80
45233;DHT22;30969;51.052;17.056;2023-05-10T20:51:19;18.20;43.20
45233;DHT22;30969;51.052;17.056;2023-05-10T20:56:24;18.10;42.90
45233;DHT22;30969;51.052;17.056;2023-05-10T21:01:28;18.10;43.00
45233;DHT22;30969;51.052;17.056;2023-05-10T21:06:32;18.00;42.50
45233;DHT22;30969;51.052;17.056;2023-05-10T21:11:37;18.00;43.80
45233;DHT22;30969;51.052;17.056;2023-05-10T21:16:41;17.90;43.70
45233;DHT22;30969;51.052;17.056;2023-05-10T21:21:45;17.90;42.90
45233;DHT22;30969;51.052;17.056;2023-05-10T21:26:49;18.00;42.40
45233;DHT22;30969;51.052;17.056;2023-05-10T21:31:53;18.00;41.90
45233;DHT22;30969;51.052;17.056;2023-05-10T21:36:57;18.10;41.90
45233;DHT22;30969;51.052;17.056;2023-05-10T21:42:02;18.10;41.60
45233;DHT22;30969;51.052;17.056;2023-05-10T21:47:05;18.10;41.60
45233;DHT22;30969;51.052;17.056;2023-05-10T21:52:09;18.10;41.80
45233;DHT22;30969;51.052;17.056;2023-05-10T21:57:14;18.00;42.20
45233;DHT22;30969;51.052;17.056;2023-05-10T22:02:18;17.90;42.10
45233;DHT22;30969;51.052;17.056;2023-05-10T22:07:21;17.80;41.70
45233;DHT22;30969;51.052;17.056;2023-05-10T22:12:26;17.90;41.70
45233;DHT22;30969;51.052;17.056;2023-05-10T22:17:29;17.90;41.50
45233;DHT22;30969;51.052;17.056;2023-05-10T22:22:33;17.90;41.40
45233;DHT22;30969;51.052;17.056;2023-05-10T22:27:39;17.80;41.10
